Time;durP1;ratioP1;P1;durP2;ratioP2;P2;SDS_P1;SDS_P2;PMS_P1;PMS_P2;Temp;Humidity;BMP_temperature;BMP_pressure;BME280_temperature;BME280_humidity;BME280_pressure;Samples;Min_cycle;Max_cycle;Signal;HPM_P1;HPM_P2
2024/01/11 00:01:34;;;;;;;1.23;1.23;;;;;;;-7.58;88.98;99557.19;4935125;29;20044;-90
2024/01/11 00:04:00;;;;;;;1.20;1.20;;;;;;;-7.79;88.75;99561.81;4949422;28;20048;-91
2024/01/11 00:06:25;;;;;;;1.27;1.27;;;;;;;-7.84;89.51;99565.56;4947767;29;20051;-93
2024/01/11 00:08:52;;;;;;;1.13;1.13;;;;;;;-7.87;89.83;99561.69;4937899;29;20413;-93
2024/01/11 00:11:26;;;;;;;1.27;1.27;;;;;;;-8.03;89.31;99559.03;4939231;29;20034;-95
2024/01/11 00:13:54;;;;;;;1.33;1.33;;;;;;;-8.03;90.29;99570.31;4939772;29;20177;-94
2024/01/11 00:16:20;;;;;;;1.20;1.20;;;;;;;-8.17;89.86;99554.88;4942599;29;20277;-95
2024/01/11 00:18:45;;;;;;;1.20;1.20;;;;;;;-8.18;89.02;99563.41;4946096;29;20062;-90
2024/01/11 00:21:11;;;;;;;1.20;1.20;;;;;;;-7.98;88.50;99551.78;4941983;28;20050;-93
2024/01/11 00:23:37;;;;;;;1.30;1.30;;;;;;;-8.08;88.63;99565.38;4917017;29;20094;-92
2024/01/11 00:26:03;;;;;;;1.23;1.23;;;;;;;-8.08;89.93;99565.38;4931556;29;20722;-92
2024/01/11 00:28:31;;;;;;;1.30;1.30;;;;;;;-7.91;89.76;99572.44;4951972;29;20047;-94
2024/01/11 00:30:56;;;;;;;1.30;1.30;;;;;;;-7.92;90.25;99563.75;4945286;29;20122;-91
2024/01/11 00:33:22;;;;;;;1.20;1.20;;;;;;;-8.14;89.60;99567.25;4952977;29;20048;-91
2024/01/11 00:35:48;;;;;;;1.20;1.20;;;;;;;-8.32;88.94;99559.22;4935434;29;20044;-92
2024/01/11 00:38:13;;;;;;;1.30;1.30;;;;;;;-8.09;90.32;99569.63;4961023;29;20028;-92
2024/01/11 00:40:39;;;;;;;1.20;1.20;;;;;;;-8.19;89.65;99576.13;4939866;28;20036;-93
2024/01/11 00:43:04;;;;;;;1.30;1.30;;;;;;;-8.28;88.78;99570.84;4932572;29;20036;-93
2024/01/11 00:45:33;;;;;;;1.30;1.30;;;;;;;-8.17;90.40;99574.66;4932620;29;20040;-93
2024/01/11 00:47:59;;;;;;;1.30;1.30;;;;;;;-7.91;90.63;99565.59;4937023;29;20035;-92
2024/01/11 00:50:24;;;;;;;1.30;1.30;;;;;;;-8.01;88.92;99566.22;4935445;29;20030;-93
2024/01/11 00:52:50;;;;;;;1.20;1.20;;;;;;;-8.09;88.10;99576.47;4936103;29;20024;-94
2024/01/11 00:55:16;;;;;;;1.30;1.30;;;;;;;-8.16;88.86;99566.16;4927977;29;20032;-91
2024/01/11 00:57:41;;;;;;;1.30;1.30;;;;;;;-8.17;88.96;99575.59;4942447;29;20086;-91
2024/01/11 01:00:08;;;;;;;1.25;1.25;;;;;;;-8.16;89.17;99576.50;4942534;29;20035;-92
2024/01/11 01:02:37;;;;;;;1.23;1.23;;;;;;;-8.32;89.42;99585.09;4946009;29;20038;-91
2024/01/11 01:05:03;;;;;;;1.30;1.30;;;;;;;-8.18;90.17;99585.78;4951894;28;20122;-92
2024/01/11 01:07:28;;;;;;;1.30;1.30;;;;;;;-8.17;90.01;99585.94;4919676;29;20415;-92
2024/01/11 01:09:54;;;;;;;1.30;1.30;;;;;;;-8.18;88.79;99581.50;4928974;29;20032;-92
2024/01/11 01:12:19;;;;;;;1.20;1.20;;;;;;;-8.10;90.17;99582.38;4927633;29;20044;-92
2024/01/11 01:14:45;;;;;;;1.30;1.30;;;;;;;-8.42;88.93;99587.41;4917579;29;20045;-93
2024/01/11 01:17:12;;;;;;;1.20;1.20;;;;;;;-8.40;90.33;99585.91;4939174;29;20050;-93
2024/01/11 01:19:38;;;;;;;1.20;1.20;;;;;;;-8.28;90.43;99591.56;4941151;29;20130;-92
2024/01/11 01:22:04;;;;;;;1.30;1.30;;;;;;;-8.13;89.87;99595.91;4933605;29;20040;-91
2024/01/11 01:24:31;;;;;;;1.20;1.20;;;;;;;-8.16;89.35;99592.03;4939848;29;20035;-94
2024/01/11 01:26:56;;;;;;;1.30;1.30;;;;;;;-8.43;89.47;99590.75;4935701;29;20185;-91
2024/01/11 01:29:23;;;;;;;1.10;1.10;;;;;;;-8.55;89.98;99592.81;4929598;29;20056;-91
2024/01/11 01:31:50;;;;;;;1.25;1.25;;;;;;;-8.47;90.07;99605.75;4963641;28;20058;-90
2024/01/11 01:34:17;;;;;;;1.30;1.30;;;;;;;-8.43;90.15;99603.69;4936598;29;20042;-93
2024/01/11 01:36:42;;;;;;;1.30;1.30;;;;;;;-8.41;90.13;99601.28;4932509;29;20035;-93
2024/01/11 01:39:08;;;;;;;1.20;1.20;;;;;;;-8.55;89.85;99595.41;4951386;28;20768;-92
2024/01/11 01:41:34;;;;;;;1.20;1.20;;;;;;;-8.46;89.39;99602.41;4939880;29;20036;-93
2024/01/11 01:43:59;;;;;;;1.30;1.30;;;;;;;-8.54;88.99;99601.50;4946961;29;20024;-92
2024/01/11 01:46:27;;;;;;;1.30;1.30;;;;;;;-8.43;89.54;99606.28;4949344;29;20042;-92
2024/01/11 01:48:54;;;;;;;1.20;1.20;;;;;;;-8.36;89.35;99613.06;4964437;29;20056;-94
2024/01/11 01:51:22;;;;;;;1.20;1.20;;;;;;;-8.27;89.00;99593.41;4933278;29;20067;-93
2024/01/11 01:53:49;;;;;;;1.20;1.20;;;;;;;-8.08;89.46;99606.78;4956149;29;20134;-93
2024/01/11 01:56:15;;;;;;;1.30;1.30;;;;;;;-8.47;88.66;99605.75;4952077;29;20043;-93
2024/01/11 01:58:43;;;;;;;1.30;1.30;;;;;;;-8.55;88.50;99608.34;4944675;29;20043;-95
2024/01/11 02:01:08;;;;;;;1.30;1.30;;;;;;;-8.43;89.07;99607.91;4940125;29;20040;-94
2024/01/11 02:03:35;;;;;;;1.30;1.30;;;;;;;-8.61;89.02;99614.47;4917274;29;20051;-94
2024/01/11 02:06:02;;;;;;;1.30;1.30;;;;;;;-8.33;90.35;99610.81;4939201;29;20423;-94
2024/01/11 02:08:28;;;;;;;;;;;;;;;-8.35;90.39;99617.47;4931857;29;20031;-94
2024/01/11 02:10:54;;;;;;;1.23;1.23;;;;;;;-8.30;89.97;99616.31;4935886;29;19903;-93
2024/01/11 02:13:20;;;;;;;1.30;1.30;;;;;;;-8.33;89.43;99613.41;4940001;29;20051;-92
2024/01/11 02:15:46;;;;;;;1.30;1.30;;;;;;;-8.09;89.30;99621.41;4944178;29;20127;-92
2024/01/11 02:18:12;;;;;;;1.30;1.30;;;;;;;-8.43;87.73;99615.69;4921276;29;20051;-92
2024/01/11 02:20:37;;;;;;;1.30;1.30;;;;;;;-8.39;88.71;99620.47;4932496;29;20044;-93
2024/01/11 02:23:11;;;;;;;1.33;1.33;;;;;;;-8.37;88.33;99619.00;4924857;29;20035;-94
2024/01/11 02:25:37;;;;;;;1.20;1.20;;;;;;;-8.38;89.08;99618.09;4934788;29;20040;-91
2024/01/11 02:28:03;;;;;;;1.20;1.20;;;;;;;-8.50;88.69;99621.81;4937908;29;20066;-92
2024/01/11 02:30:29;;;;;;;1.20;1.20;;;;;;;-8.38;89.70;99627.50;4933516;29;20055;-92
2024/01/11 02:32:55;;;;;;;1.30;1.30;;;;;;;-8.40;89.66;99621.22;4936892;29;20043;-94
2024/01/11 02:35:21;;;;;;;1.30;1.30;;;;;;;-8.26;90.07;99619.44;4948553;28;20032;-93
2024/01/11 02:37:48;;;;;;;1.10;1.10;;;;;;;-8.56;89.88;99610.75;4934614;29;20036;-94
2024/01/11 02:40:14;;;;;;;1.30;1.30;;;;;;;-8.33;89.98;99618.56;4918150;29;20086;-92
2024/01/11 02:42:40;;;;;;;1.30;1.30;;;;;;;-8.59;88.83;99607.81;4945567;28;20059;-92
2024/01/11 02:45:08;;;;;;;1.30;1.30;;;;;;;-8.49;89.55;99615.88;4935867;29;20047;-93
2024/01/11 02:47:33;;;;;;;1.20;1.20;;;;;;;-8.42;89.65;99608.13;4946385;29;20102;-95
2024/01/11 02:50:03;;;;;;;1.20;1.20;;;;;;;-8.31;90.00;99609.31;4936645;29;20036;-93
2024/01/11 02:52:42;;;;;;;1.30;1.30;;;;;;;-8.67;89.27;99612.09;4917222;29;20145;-95
2024/01/11 02:55:07;;;;;;;1.38;1.38;;;;;;;-8.59;88.82;99605.22;4941056;29;20027;-94
2024/01/11 02:57:33;;;;;;;1.20;1.20;;;;;;;-8.76;89.59;99608.44;4932163;29;20059;-92
2024/01/11 02:59:59;;;;;;;1.30;1.30;;;;;;;-8.82;90.33;99603.44;4938008;29;20040;-93
2024/01/11 03:02:25;;;;;;;1.23;1.23;;;;;;;-8.91;88.82;99609.19;4943706;29;20031;-92
2024/01/11 03:04:51;;;;;;;1.30;1.30;;;;;;;-8.39;90.37;99602.34;4935720;29;20553;-93
2024/01/11 03:07:17;;;;;;;1.30;1.30;;;;;;;-8.45;89.46;99606.81;4943656;29;20032;-94
2024/01/11 03:09:43;;;;;;;1.30;1.30;;;;;;;-8.64;89.52;99596.00;4931276;29;20028;-91
2024/01/11 03:12:09;;;;;;;1.40;1.40;;;;;;;-8.79;89.37;99603.81;4937236;29;20029;-92
2024/01/11 03:14:35;;;;;;;1.40;1.40;;;;;;;-8.82;88.50;99608.63;4920740;29;20032;-92
2024/01/11 03:17:01;;;;;;;1.30;1.30;;;;;;;-8.81;88.40;99602.72;4937049;29;20687;-94
2024/01/11 03:19:27;;;;;;;1.30;1.30;;;;;;;-8.53;90.45;99608.50;4914699;29;20201;-92
2024/01/11 03:21:54;;;;;;;1.30;1.30;;;;;;;-8.86;88.71;99600.31;4929048;29;20070;-93
2024/01/11 03:24:21;;;;;;;1.40;1.40;;;;;;;-8.99;89.15;99602.22;4936705;29;20646;-94
2024/01/11 03:26:47;;;;;;;;;;;;;;;-8.68;90.14;99593.81;4939787;29;20040;-93
2024/01/11 03:29:13;;;;;;;1.30;1.30;;;;;;;-8.82;88.67;99598.28;4932201;29;19989;-93
2024/01/11 03:31:41;;;;;;;1.20;1.20;;;;;;;-8.68;90.07;99597.31;4933113;29;20032;-92
2024/01/11 03:34:09;;;;;;;1.30;1.30;;;;;;;-8.62;89.18;99598.03;4935653;29;20032;-93
2024/01/11 03:36:34;;;;;;;1.33;1.33;;;;;;;-8.75;89.23;99588.69;4937639;29;20028;-93
2024/01/11 03:39:00;;;;;;;1.27;1.27;;;;;;;-8.76;89.55;99592.94;4937572;29;20036;-92
2024/01/11 03:41:26;;;;;;;1.20;1.20;;;;;;;-8.82;89.70;99597.34;4917694;29;20123;-91
2024/01/11 03:43:51;;;;;;;1.20;1.20;;;;;;;-9.14;88.25;99607.44;4922570;29;20765;-94
2024/01/11 03:46:17;;;;;;;1.25;1.25;;;;;;;-9.01;89.64;99603.69;4918706;29;20039;-92
2024/01/11 03:48:43;;;;;;;1.27;1.27;;;;;;;-8.73;89.38;99602.69;4922746;29;20052;-93
2024/01/11 03:51:08;;;;;;;1.20;1.20;;;;;;;-8.81;88.86;99594.06;4938396;29;20038;-93
2024/01/11 03:53:36;;;;;;;1.40;1.40;;;;;;;-8.69;89.71;99591.97;4917573;29;20050;-92
2024/01/11 03:56:02;;;;;;;1.30;1.30;;;;;;;-8.77;88.97;99596.22;4927880;29;20085;-92
2024/01/11 03:58:31;;;;;;;1.30;1.30;;;;;;;-8.79;89.77;99597.72;4928251;29;20557;-93
2024/01/11 04:00:59;;;;;;;1.30;1.30;;;;;;;-8.68;88.85;99593.81;4929990;29;20040;-92
2024/01/11 04:03:25;;;;;;;1.35;1.35;;;;;;;-8.63;88.43;99585.81;4942500;29;20039;-92
2024/01/11 04:05:51;;;;;;;1.30;1.30;;;;;;;-8.77;88.08;99579.78;4927108;29;20024;-92
2024/01/11 04:08:17;;;;;;;1.20;1.20;;;;;;;-7.47;89.54;99577.47;4927589;29;20536;-92
2024/01/11 04:10:44;;;;;;;1.23;1.23;;;;;;;-7.17;89.23;99589.41;4905646;29;20036;-92
2024/01/11 04:13:10;;;;;;;1.30;1.30;;;;;;;-7.22;88.32;99575.94;4940711;29;20056;-93
2024/01/11 04:15:37;;;;;;;1.20;1.20;;;;;;;-7.56;88.23;99576.44;4942005;29;20024;-93
2024/01/11 04:18:04;;;;;;;1.30;1.30;;;;;;;-7.22;87.80;99580.19;4909209;29;20052;-92
2024/01/11 04:20:29;;;;;;;1.20;1.20;;;;;;;-7.58;87.21;99583.09;4904667;29;20032;-91
2024/01/11 04:22:55;;;;;;;1.20;1.20;;;;;;;-7.91;86.70;99572.44;4903979;29;20039;-93
2024/01/11 04:25:21;;;;;;;1.23;1.23;;;;;;;-7.95;86.76;99578.97;4913112;29;20051;-93
2024/01/11 04:27:47;;;;;;;1.30;1.30;;;;;;;-8.16;87.06;99585.19;4915330;29;20123;-92
2024/01/11 04:30:12;;;;;;;1.20;1.20;;;;;;;-8.14;88.25;99580.22;4917755;29;20178;-93
2024/01/11 04:32:39;;;;;;;1.30;1.30;;;;;;;-8.42;87.04;99573.56;4920333;29;20105;-93
2024/01/11 04:35:05;;;;;;;1.20;1.20;;;;;;;-8.37;87.24;99575.00;4920532;29;20076;-92
2024/01/11 04:37:31;;;;;;;1.30;1.30;;;;;;;-8.34;87.98;99577.88;4914208;29;20233;-93
2024/01/11 04:39:59;;;;;;;1.20;1.20;;;;;;;-8.36;87.81;99571.66;4918466;29;20082;-93
2024/01/11 04:42:27;;;;;;;1.30;1.30;;;;;;;-8.40;88.97;99574.66;4918185;29;20017;-93
2024/01/11 04:44:54;;;;;;;1.30;1.30;;;;;;;-8.44;89.46;99572.44;4919749;29;20080;-93
2024/01/11 04:47:19;;;;;;;1.30;1.30;;;;;;;-8.54;89.59;99579.13;4924088;29;20055;-91
2024/01/11 04:49:46;;;;;;;1.30;1.30;;;;;;;-8.52;89.19;99581.00;4919532;29;20036;-92
2024/01/11 04:52:12;;;;;;;1.30;1.30;;;;;;;-8.56;88.95;99578.06;4917335;29;20091;-95
2024/01/11 04:54:38;;;;;;;1.40;1.40;;;;;;;-8.63;89.10;99582.31;4932993;29;20111;-94
2024/01/11 04:57:04;;;;;;;1.30;1.30;;;;;;;-8.68;89.46;99588.63;4916384;29;20051;-91
2024/01/11 04:59:34;;;;;;;1.23;1.23;;;;;;;-8.89;88.15;99592.22;4912063;29;20035;-93
2024/01/11 05:01:59;;;;;;;1.20;1.20;;;;;;;-8.68;89.66;99586.97;4906870;29;20043;-92
2024/01/11 05:04:25;;;;;;;1.30;1.30;;;;;;;-8.58;88.89;99589.88;4922094;29;20100;-92
2024/01/11 05:06:51;;;;;;;1.27;1.27;;;;;;;-8.66;88.35;99584.56;4909656;29;20037;-92
2024/01/11 05:09:17;;;;;;;1.30;1.30;;;;;;;-8.48;88.93;99584.09;4925832;29;20046;-94
2024/01/11 05:11:43;;;;;;;1.30;1.30;;;;;;;-8.52;89.20;99584.50;4929124;29;20044;-94
2024/01/11 05:14:09;;;;;;;1.23;1.23;;;;;;;-8.21;88.39;99583.75;4929188;29;20021;-92
2024/01/11 05:16:36;;;;;;;1.20;1.20;;;;;;;-8.42;88.63;99587.41;4928765;29;20040;-93
2024/01/11 05:19:01;;;;;;;1.30;1.30;;;;;;;-8.47;89.42;99585.03;4925824;29;20638;-92
2024/01/11 05:21:27;;;;;;;1.30;1.30;;;;;;;-8.48;89.41;99590.94;4920864;29;20040;-94
2024/01/11 05:23:53;;;;;;;1.20;1.20;;;;;;;-8.36;89.63;99594.97;4939807;29;20055;-93
2024/01/11 05:26:19;;;;;;;1.30;1.30;;;;;;;-8.44;88.42;99595.72;4909269;29;20058;-93
2024/01/11 05:28:45;;;;;;;1.30;1.30;;;;;;;-8.45;87.96;99596.47;4909741;29;20047;-92
2024/01/11 05:31:14;;;;;;;1.40;1.40;;;;;;;-8.42;88.39;99600.34;4908039;29;20055;-92
2024/01/11 05:33:41;;;;;;;1.30;1.30;;;;;;;-8.47;89.24;99603.16;4930104;29;20116;-91
2024/01/11 05:36:08;;;;;;;1.20;1.20;;;;;;;-8.53;89.34;99605.94;4912512;29;20051;-91
2024/01/11 05:38:35;;;;;;;1.20;1.20;;;;;;;-8.44;88.83;99599.22;4925225;29;20034;-92
2024/01/11 05:41:01;;;;;;;1.38;1.38;;;;;;;-8.48;88.31;99606.47;4935316;29;20064;-92
2024/01/11 05:43:27;;;;;;;1.30;1.30;;;;;;;-8.64;88.61;99622.78;4917328;29;20103;-92
2024/01/11 05:45:53;;;;;;;1.20;1.20;;;;;;;-8.68;89.01;99627.41;4921496;29;20103;-94
2024/01/11 05:48:18;;;;;;;1.30;1.30;;;;;;;-8.58;89.48;99631.25;4918999;29;20036;-92
2024/01/11 05:50:45;;;;;;;1.20;1.20;;;;;;;-8.44;90.22;99639.72;4943385;29;20020;-91
2024/01/11 05:53:12;;;;;;;1.30;1.30;;;;;;;-8.33;90.22;99634.09;4929803;29;20056;-91
2024/01/11 05:55:38;;;;;;;1.20;1.20;;;;;;;-8.45;89.37;99628.44;4916002;29;20049;-92
2024/01/11 05:58:04;;;;;;;1.33;1.33;;;;;;;-8.45;89.24;99632.69;4940909;29;20040;-92
2024/01/11 06:00:30;;;;;;;1.20;1.20;;;;;;;-8.65;89.18;99644.22;4928748;29;20037;-93
2024/01/11 06:02:57;;;;;;;1.40;1.40;;;;;;;-8.84;88.51;99640.22;4927256;29;20092;-92
2024/01/11 06:05:26;;;;;;;1.30;1.30;;;;;;;-8.72;89.87;99644.25;4909731;29;20043;-96
2024/01/11 06:07:58;;;;;;;1.23;1.23;;;;;;;-8.64;89.31;99630.56;4920322;29;20117;-94
2024/01/11 06:10:24;;;;;;;1.23;1.23;;;;;;;-8.76;88.77;99630.81;4905245;29;20036;-94
2024/01/11 06:12:50;;;;;;;1.30;1.30;;;;;;;-8.56;89.36;99631.47;4900265;29;20040;-94
2024/01/11 06:15:15;;;;;;;1.30;1.30;;;;;;;-7.87;89.32;99616.97;4921452;29;20039;-93
2024/01/11 06:17:54;;;;;;;;;;;;;;;;;;;;;
2024/01/11 06:20:32;;;;;;;1.30;1.30;;;;;;;-7.13;88.25;99621.03;5065008;23;20056;-91
2024/01/11 06:22:59;;;;;;;1.30;1.30;;;;;;;-7.34;88.14;99621.19;4885816;29;20112;-95
2024/01/11 06:25:24;;;;;;;1.20;1.20;;;;;;;-7.51;88.32;99624.50;4918105;29;20032;-92
2024/01/11 06:27:50;;;;;;;1.30;1.30;;;;;;;-7.70;88.29;99621.50;4887548;29;20377;-94
2024/01/11 06:30:16;;;;;;;1.30;1.30;;;;;;;-7.93;88.49;99626.66;4882847;29;20044;-93
2024/01/11 06:32:43;;;;;;;1.08;1.08;;;;;;;-7.65;88.95;99628.13;5466040;23;20036;-94
2024/01/11 06:35:10;;;;;;;1.23;1.23;;;;;;;-7.81;87.74;99617.72;4920937;29;20414;-94
2024/01/11 06:37:35;;;;;;;1.23;1.23;;;;;;;-7.76;87.86;99613.03;4938621;29;20051;-94
2024/01/11 06:40:03;;;;;;;1.25;1.25;;;;;;;-8.00;87.53;99629.28;4942588;29;20039;-94
2024/01/11 06:42:30;;;;;;;1.30;1.30;;;;;;;-8.33;87.93;99628.94;4916820;29;20078;-94
2024/01/11 06:44:56;;;;;;;1.40;1.40;;;;;;;-8.38;88.76;99628.44;4923331;29;20043;-94
2024/01/11 06:47:21;;;;;;;1.20;1.20;;;;;;;-8.63;87.28;99627.22;4907487;29;20057;-91
2024/01/11 06:50:00;;;;;;;1.30;1.30;;;;;;;-8.70;87.91;99629.84;5207403;23;20039;-91
2024/01/11 06:52:26;;;;;;;1.30;1.30;;;;;;;-8.60;88.06;99648.28;4955617;28;20048;-93
2024/01/11 06:54:54;;;;;;;1.25;1.25;;;;;;;-8.58;89.00;99649.38;4922308;29;20091;-96
2024/01/11 06:57:24;;;;;;;1.27;1.27;;;;;;;-8.65;88.77;99654.56;4936916;29;20038;-95
2024/01/11 06:59:57;;;;;;;1.23;1.23;;;;;;;-8.71;88.76;99664.22;4936407;29;20119;-95
2024/01/11 07:02:23;;;;;;;1.30;1.30;;;;;;;-8.54;89.28;99666.19;4936739;29;20027;-92
2024/01/11 07:04:54;;;;;;;1.30;1.30;;;;;;;-8.54;88.56;99661.00;4933538;28;20136;-96
2024/01/11 07:07:19;;;;;;;1.30;1.30;;;;;;;-8.56;89.15;99668.59;4934086;29;20048;-94
2024/01/11 07:09:46;;;;;;;1.30;1.30;;;;;;;-8.56;88.79;99666.00;4952046;28;20034;-94
2024/01/11 07:12:12;;;;;;;1.50;1.50;;;;;;;-8.69;87.86;99659.22;4936385;29;20031;-94
2024/01/11 07:14:37;;;;;;;1.30;1.30;;;;;;;-8.60;88.25;99663.78;4939941;29;20351;-94
2024/01/11 07:17:03;;;;;;;1.40;1.40;;;;;;;-8.55;88.69;99673.00;4921895;29;20518;-92
2024/01/11 07:19:29;;;;;;;1.30;1.30;;;;;;;-8.54;88.67;99664.50;4947015;28;20479;-94
2024/01/11 07:21:55;;;;;;;1.30;1.30;;;;;;;-8.51;89.17;99665.63;4936910;29;20046;-95
2024/01/11 07:24:21;;;;;;;1.40;1.40;;;;;;;-8.54;89.21;99669.69;4942072;28;20345;-94
2024/01/11 07:26:47;;;;;;;1.30;1.30;;;;;;;-8.57;89.42;99679.69;4936119;29;20081;-95
2024/01/11 07:29:13;;;;;;;1.30;1.30;;;;;;;-8.56;88.60;99666.00;4939186;29;20541;-93
2024/01/11 07:31:40;;;;;;;1.40;1.40;;;;;;;-8.41;88.00;99681.47;4920752;29;20043;-94
2024/01/11 07:34:06;;;;;;;1.40;1.40;;;;;;;-8.35;88.62;99676.97;4931191;29;20051;-94
2024/01/11 07:36:31;;;;;;;1.30;1.30;;;;;;;-8.46;89.04;99680.94;4937166;29;20043;-93
2024/01/11 07:38:57;;;;;;;1.30;1.30;;;;;;;-8.49;89.48;99690.91;4930035;29;20557;-94
2024/01/11 07:41:24;;;;;;;1.30;1.30;;;;;;;-8.69;88.03;99705.75;4932692;29;20040;-92
2024/01/11 07:43:49;;;;;;;1.17;1.17;;;;;;;-8.60;88.25;99710.34;4937122;29;20051;-96
2024/01/11 07:46:15;;;;;;;1.27;1.27;;;;;;;-8.48;88.12;99716.03;4961755;29;20036;-93
2024/01/11 07:48:40;;;;;;;1.30;1.30;;;;;;;-8.38;88.39;99712.91;4943880;29;20051;-94
2024/01/11 07:51:06;;;;;;;1.33;1.33;;;;;;;-8.14;88.47;99709.63;4931819;29;20028;-93
2024/01/11 07:53:31;;;;;;;1.30;1.30;;;;;;;-8.06;87.60;99709.75;4953430;29;20039;-93
2024/01/11 07:55:58;;;;;;;1.40;1.40;;;;;;;-8.20;87.52;99717.56;4948176;29;20036;-93
2024/01/11 07:58:23;;;;;;;1.23;1.23;;;;;;;-8.20;87.26;99717.56;4965947;28;20075;-93
2024/01/11 08:00:49;;;;;;;1.30;1.30;;;;;;;-8.08;86.75;99721.63;4966183;28;20024;-92
2024/01/11 08:03:15;;;;;;;1.20;1.20;;;;;;;-7.94;87.48;99728.41;4939781;29;20116;-93
2024/01/11 08:05:43;;;;;;;1.30;1.30;;;;;;;-7.99;87.21;99731.19;4931362;29;20044;-96
2024/01/11 08:08:08;;;;;;;1.30;1.30;;;;;;;-7.90;86.91;99722.84;4934894;29;20047;-95
2024/01/11 08:10:35;;;;;;;1.30;1.30;;;;;;;-7.84;86.98;99730.38;4945112;28;20054;-95
2024/01/11 08:13:03;;;;;;;1.30;1.30;;;;;;;-7.62;87.52;99729.50;4927820;29;20072;-95
2024/01/11 08:15:29;;;;;;;1.30;1.30;;;;;;;-7.60;87.12;99733.19;4942354;29;20521;-96
2024/01/11 08:17:56;;;;;;;1.20;1.20;;;;;;;-7.61;86.97;99744.31;4936838;29;20024;-95
2024/01/11 08:20:26;;;;;;;1.20;1.20;;;;;;;-7.60;87.07;99740.06;4930251;29;20036;-95
2024/01/11 08:22:56;;;;;;;1.30;1.30;;;;;;;-7.24;86.40;99745.91;4930728;29;20036;-94
2024/01/11 08:25:23;;;;;;;1.40;1.40;;;;;;;-6.57;84.57;99729.22;4940872;29;20044;-95
2024/01/11 08:27:49;;;;;;;1.30;1.30;;;;;;;-5.98;83.48;99734.88;4941948;29;20051;-93
2024/01/11 08:30:15;;;;;;;1.30;1.30;;;;;;;-5.52;81.76;99747.59;4946133;29;20083;-93
2024/01/11 08:32:42;;;;;;;1.20;1.20;;;;;;;-5.26;81.34;99745.19;4940769;29;20035;-94
2024/01/11 08:35:09;;;;;;;1.30;1.30;;;;;;;-5.22;81.34;99739.56;4924548;29;20044;-92
2024/01/11 08:37:36;;;;;;;1.30;1.30;;;;;;;-5.28;80.11;99736.28;4940796;29;20156;-94
2024/01/11 08:53:12;;;;;;;1.20;1.20;;;;;;;-4.58;80.52;99743.69;4913901;29;20044;-93
2024/01/11 08:55:38;;;;;;;1.35;1.35;;;;;;;-4.09;79.97;99751.34;4912123;29;20043;-96
2024/01/11 08:58:05;;;;;;;1.20;1.20;;;;;;;-4.17;77.79;99747.97;4897630;29;20044;-94
2024/01/11 09:00:31;;;;;;;1.30;1.30;;;;;;;-3.74;80.20;99746.16;5059663;23;20137;-92
2024/01/11 09:02:58;;;;;;;1.20;1.20;;;;;;;-2.88;78.66;99729.47;4928883;29;20036;-92
2024/01/11 09:32:56;;;;;;;1.10;1.10;;;;;;;0.27;69.77;99725.91;5760290;23;20048;-93
2024/01/11 09:38:10;;;;;;;1.15;1.15;;;;;;;0.61;71.78;99724.41;5965552;23;20035;-94
2024/01/11 09:40:41;;;;;;;1.10;1.10;;;;;;;0.47;68.93;99729.41;4926132;29;20044;-92
2024/01/11 09:43:34;;;;;;;1.10;1.10;;;;;;;0.25;65.68;99724.06;4934183;29;20043;-92
2024/01/11 09:46:09;;;;;;;1.20;1.20;;;;;;;0.55;69.16;99711.69;4916333;29;20192;-94
2024/01/11 09:48:38;;;;;;;1.10;1.10;;;;;;;-0.14;67.25;99718.03;4927622;29;20040;-90
2024/01/11 09:51:11;;;;;;;1.10;1.10;;;;;;;0.71;67.39;99720.03;4916449;29;20044;-92
2024/01/11 09:53:38;;;;;;;1.10;1.10;;;;;;;1.66;68.20;99719.91;4929778;29;20059;-92
2024/01/11 09:56:09;;;;;;;1.10;1.10;;;;;;;2.03;67.23;99707.03;4933586;29;20048;-95
2024/01/11 09:58:36;;;;;;;1.10;1.10;;;;;;;2.78;60.50;99695.25;4963627;23;20045;-91
2024/01/11 10:01:15;;;;;;;1.10;1.10;;;;;;;2.85;66.12;99703.59;4909557;29;20052;-93
2024/01/11 10:03:48;;;;;;;1.00;1.00;;;;;;;2.80;60.82;99687.44;5626352;23;20079;-94
2024/01/11 10:06:15;;;;;;;1.10;1.10;;;;;;;2.83;62.92;99688.59;4906679;29;20047;-94
2024/01/11 10:08:41;;;;;;;1.10;1.10;;;;;;;2.96;61.86;99684.22;4897134;29;20054;-91
2024/01/11 10:11:07;;;;;;;1.10;1.10;;;;;;;2.64;57.55;99673.94;4904110;29;20088;-92
2024/01/11 10:13:43;;;;;;;1.00;1.00;;;;;;;1.35;58.28;99678.81;5231250;23;20148;-93
2024/01/11 10:16:15;;;;;;;1.02;1.02;;;;;;;1.89;59.71;99677.00;4937058;29;20043;-93
2024/01/11 10:18:41;;;;;;;1.00;1.00;;;;;;;3.46;60.96;99677.38;4963057;28;20139;-90
2024/01/11 10:21:09;;;;;;;1.00;1.00;;;;;;;3.54;58.34;99681.47;4953265;29;20044;-91
2024/01/11 10:23:36;;;;;;;1.10;1.10;;;;;;;3.52;57.96;99663.72;4946112;29;20106;-90
2024/01/11 10:26:04;;;;;;;1.08;1.08;;;;;;;4.33;57.76;99662.41;4950715;29;20042;-89
2024/01/11 10:28:30;;;;;;;1.00;1.00;;;;;;;2.80;53.65;99676.91;4946934;29;20047;-90
2024/01/11 10:30:56;;;;;;;1.00;1.00;;;;;;;4.26;52.95;99675.06;4955175;28;20038;-94
2024/01/11 10:33:28;;;;;;;0.90;0.90;;;;;;;4.74;53.02;99672.19;4923928;29;20048;-93
2024/01/11 10:36:00;;;;;;;0.80;0.80;;;;;;;4.88;52.76;99670.47;4938214;29;20036;-90
2024/01/11 10:38:35;;;;;;;0.90;0.90;;;;;;;5.38;50.59;99660.56;5540498;23;20027;-94
2024/01/11 10:41:04;;;;;;;0.98;0.98;;;;;;;3.53;54.08;99670.81;4903209;29;20061;-93
2024/01/11 10:43:44;;;;;;;0.90;0.90;;;;;;;5.32;50.62;99664.56;4896151;29;20064;-90
2024/01/11 10:46:21;;;;;;;0.90;0.90;;;;;;;5.42;51.44;99666.97;4901060;29;20071;-95
2024/01/11 10:48:52;;;;;;;0.93;0.93;;;;;;;4.85;51.51;99678.22;4920605;29;20502;-92
2024/01/11 10:51:22;;;;;;;0.90;0.90;;;;;;;5.17;48.66;99674.13;4919657;29;20072;-90
2024/01/11 10:56:24;;;;;;;0.90;0.90;;;;;;;6.91;46.41;99663.78;5120903;23;20052;-91
2024/01/11 10:58:54;;;;;;;0.90;0.90;;;;;;;6.83;45.85;99670.38;4889278;29;20051;-89
2024/01/11 11:01:24;;;;;;;0.80;0.80;;;;;;;7.39;45.16;99665.69;4914259;29;20053;-89
2024/01/11 11:06:32;;;;;;;0.82;0.82;;;;;;;6.51;45.57;99668.44;5960789;23;20027;-89
2024/01/11 11:09:00;;;;;;;0.90;0.90;;;;;;;5.56;46.95;99665.22;4904453;29;20033;-90
2024/01/11 11:14:08;;;;;;;0.90;0.90;;;;;;;4.98;49.93;99656.13;5848329;23;21418;-92
2024/01/11 11:16:33;;;;;;;0.95;0.95;;;;;;;6.32;44.83;99654.09;4955404;28;20052;-90
2024/01/11 11:19:00;;;;;;;0.80;0.80;;;;;;;6.05;45.57;99658.63;4918933;29;20064;-91
2024/01/11 11:21:26;;;;;;;1.08;1.08;;;;;;;6.95;43.77;99649.88;4924309;29;20051;-88
2024/01/11 11:23:56;;;;;;;1.00;1.00;;;;;;;5.87;45.67;99661.00;4944316;29;20043;-91
2024/01/11 11:26:26;;;;;;;1.00;1.00;;;;;;;7.05;43.56;99653.97;4939679;29;20103;-89
2024/01/11 11:28:55;;;;;;;0.90;0.90;;;;;;;6.92;43.56;99645.31;4941782;29;20074;-91
2024/01/11 11:31:57;;;;;;;0.90;0.90;;;;;;;8.45;39.87;99631.59;4947207;29;20134;-91
2024/01/11 11:34:46;;;;;;;0.90;0.90;;;;;;;9.19;39.00;99625.56;4935191;29;20047;-89
2024/01/11 11:37:12;;;;;;;0.90;0.90;;;;;;;7.55;40.04;99627.63;4942502;29;20028;-96
2024/01/11 11:45:01;;;;;;;0.80;0.80;;;;;;;7.46;42.21;99630.69;5658967;23;20100;-95
2024/01/11 11:47:38;;;;;;;0.70;0.70;;;;;;;9.32;38.53;99630.66;4916512;29;20044;-93
2024/01/11 11:50:07;;;;;;;0.80;0.80;;;;;;;9.98;36.93;99626.69;4910575;29;20044;-94
2024/01/11 11:55:15;;;;;;;0.90;0.90;;;;;;;9.31;37.04;99603.97;5170934;23;20071;-94
2024/01/11 11:57:43;;;;;;;1.00;1.00;;;;;;;6.53;42.00;99612.06;4909485;29;20020;-90
2024/01/11 12:00:15;;;;;;;0.90;0.90;;;;;;;8.89;38.84;99614.31;5320627;23;20062;-92
2024/01/11 12:10:48;;;;;;;0.80;0.80;;;;;;;9.60;36.44;99586.69;4976908;23;20573;-92
2024/01/11 12:13:14;;;;;;;0.80;0.80;;;;;;;9.82;35.75;99584.19;4921407;29;20063;-93
2024/01/11 12:15:41;;;;;;;0.90;0.90;;;;;;;9.74;35.58;99588.25;4918475;29;20060;-94
2024/01/11 12:18:07;;;;;;;0.98;0.98;;;;;;;10.37;34.75;99586.66;5172751;23;20040;-93
2024/01/11 12:23:17;;;;;;;0.90;0.90;;;;;;;10.12;34.49;99573.97;5344983;23;20075;-93
2024/01/11 12:25:46;;;;;;;0.90;0.90;;;;;;;9.00;35.59;99586.47;4925798;29;20044;-91
2024/01/11 12:28:13;;;;;;;0.80;0.80;;;;;;;9.32;35.23;99579.16;4921807;29;20114;-94
2024/01/11 12:30:42;;;;;;;0.80;0.80;;;;;;;9.80;34.50;99583.19;4924763;29;20047;-93
2024/01/11 12:33:08;;;;;;;0.80;0.80;;;;;;;8.89;35.78;99572.66;4925719;29;20025;-93
2024/01/11 12:40:50;;;;;;;0.90;0.90;;;;;;;6.52;40.77;99589.03;4981330;23;20051;-91
2024/01/11 12:43:18;;;;;;;1.02;1.02;;;;;;;7.02;39.76;99576.84;4928477;29;20045;-90
2024/01/11 12:45:44;;;;;;;1.10;1.10;;;;;;;7.12;40.32;99568.56;4924627;29;20056;-93
2024/01/11 12:48:10;;;;;;;1.00;1.00;;;;;;;7.63;39.22;99565.22;4923340;29;20096;-94
2024/01/11 12:50:43;;;;;;;1.10;1.10;;;;;;;7.87;38.05;99551.44;4928398;29;20064;-90
2024/01/11 12:53:18;;;;;;;1.10;1.10;;;;;;;7.46;39.57;99569.59;4914347;29;20055;-91